sensor_id;sensor_type;location;lat;lon;timestamp;P1;durP1;ratioP1;P2;durP2;ratioP2
16063;SDS011;8136;53.172;8.256;2024-02-16T10:51:51;6.07;;;2.83;;
16063;SDS011;8136;53.172;8.256;2024-02-16T10:55:08;4.23;;;2.30;;
16063;SDS011;8136;53.172;8.256;2024-02-16T11:02:06;5.10;;;2.83;;
16063;SDS011;8136;53.172;8.256;2024-02-16T11:08:48;6.03;;;2.70;;
16063;SDS011;8136;53.172;8.256;2024-02-16T11:12:36;5.97;;;2.77;;
16063;SDS011;8136;53.172;8.256;2024-02-16T12:00:02;6.60;;;3.10;;
16063;SDS011;8136;53.172;8.256;2024-02-16T12:02:34;5.17;;;3.17;;
16063;SDS011;8136;53.172;8.256;2024-02-16T12:05:04;6.40;;;3.60;;
16063;SDS011;8136;53.172;8.256;2024-02-16T12:07:32;3.77;;;3.07;;
16063;SDS011;8136;53.172;8.256;2024-02-16T12:10:00;5.63;;;3.30;;
16063;SDS011;8136;53.172;8.256;2024-02-16T12:12:31;5.33;;;3.20;;
16063;SDS011;8136;53.172;8.256;2024-02-16T12:14:58;6.77;;;3.07;;
16063;SDS011;8136;53.172;8.256;2024-02-16T12:17:26;7.27;;;3.60;;
16063;SDS011;8136;53.172;8.256;2024-02-16T12:19:53;8.63;;;3.70;;
16063;SDS011;8136;53.172;8.256;2024-02-16T12:22:25;4.63;;;3.33;;
16063;SDS011;8136;53.172;8.256;2024-02-16T12:24:51;5.43;;;3.80;;
16063;SDS011;8136;53.172;8.256;2024-02-16T12:27:18;4.70;;;3.17;;
16063;SDS011;8136;53.172;8.256;2024-02-16T12:29:45;6.47;;;3.47;;
16063;SDS011;8136;53.172;8.256;2024-02-16T12:32:13;6.87;;;3.50;;
16063;SDS011;8136;53.172;8.256;2024-02-16T12:34:44;7.33;;;4.17;;
16063;SDS011;8136;53.172;8.256;2024-02-16T12:37:11;5.43;;;3.30;;
16063;SDS011;8136;53.172;8.256;2024-02-16T12:39:41;5.27;;;4.33;;
16063;SDS011;8136;53.172;8.256;2024-02-16T12:42:07;5.17;;;3.97;;
16063;SDS011;8136;53.172;8.256;2024-02-16T12:44:34;6.67;;;3.97;;
16063;SDS011;8136;53.172;8.256;2024-02-16T12:47:01;4.80;;;3.80;;
16063;SDS011;8136;53.172;8.256;2024-02-16T12:49:42;5.93;;;3.90;;
16063;SDS011;8136;53.172;8.256;2024-02-16T12:52:11;6.13;;;4.03;;
16063;SDS011;8136;53.172;8.256;2024-02-16T12:54:47;5.27;;;4.53;;
16063;SDS011;8136;53.172;8.256;2024-02-16T12:57:14;5.50;;;3.83;;
16063;SDS011;8136;53.172;8.256;2024-02-16T12:59:41;7.03;;;4.47;;
16063;SDS011;8136;53.172;8.256;2024-02-16T13:02:18;5.83;;;4.20;;
16063;SDS011;8136;53.172;8.256;2024-02-16T13:04:47;7.40;;;4.50;;
16063;SDS011;8136;53.172;8.256;2024-02-16T13:07:14;5.07;;;4.47;;
16063;SDS011;8136;53.172;8.256;2024-02-16T13:09:41;6.07;;;4.33;;
16063;SDS011;8136;53.172;8.256;2024-02-16T13:12:09;5.70;;;4.80;;
16063;SDS011;8136;53.172;8.256;2024-02-16T13:14:36;7.50;;;4.70;;
16063;SDS011;8136;53.172;8.256;2024-02-16T13:17:04;6.50;;;4.90;;
16063;SDS011;8136;53.172;8.256;2024-02-16T13:19:42;9.30;;;5.40;;
16063;SDS011;8136;53.172;8.256;2024-02-16T13:22:10;6.33;;;5.53;;
16063;SDS011;8136;53.172;8.256;2024-02-16T13:24:37;7.43;;;5.33;;
16063;SDS011;8136;53.172;8.256;2024-02-16T13:27:04;6.63;;;5.40;;
16063;SDS011;8136;53.172;8.256;2024-02-16T13:29:31;6.27;;;5.50;;
16063;SDS011;8136;53.172;8.256;2024-02-16T13:31:58;8.30;;;6.00;;
16063;SDS011;8136;53.172;8.256;2024-02-16T13:34:25;8.37;;;6.77;;
16063;SDS011;8136;53.172;8.256;2024-02-16T13:36:52;9.87;;;6.77;;
16063;SDS011;8136;53.172;8.256;2024-02-16T13:39:23;10.10;;;6.83;;
16063;SDS011;8136;53.172;8.256;2024-02-16T13:41:52;9.87;;;7.60;;
16063;SDS011;8136;53.172;8.256;2024-02-16T13:44:22;9.63;;;7.03;;
16063;SDS011;8136;53.172;8.256;2024-02-16T13:46:49;10.17;;;7.33;;
16063;SDS011;8136;53.172;8.256;2024-02-16T13:49:16;8.53;;;7.40;;
16063;SDS011;8136;53.172;8.256;2024-02-16T13:51:43;13.57;;;7.63;;
16063;SDS011;8136;53.172;8.256;2024-02-16T13:54:15;9.03;;;7.30;;
16063;SDS011;8136;53.172;8.256;2024-02-16T13:56:44;9.83;;;7.53;;
16063;SDS011;8136;53.172;8.256;2024-02-16T13:59:11;8.20;;;7.00;;
16063;SDS011;8136;53.172;8.256;2024-02-16T14:01:37;7.90;;;6.73;;
16063;SDS011;8136;53.172;8.256;2024-02-16T14:04:05;9.10;;;7.40;;
16063;SDS011;8136;53.172;8.256;2024-02-16T14:06:31;8.13;;;6.73;;
16063;SDS011;8136;53.172;8.256;2024-02-16T14:09:00;10.30;;;6.77;;
16063;SDS011;8136;53.172;8.256;2024-02-16T14:11:39;9.13;;;7.30;;
16063;SDS011;8136;53.172;8.256;2024-02-16T14:14:32;7.43;;;6.57;;
16063;SDS011;8136;53.172;8.256;2024-02-16T14:17:23;11.37;;;7.60;;
16063;SDS011;8136;53.172;8.256;2024-02-16T14:23:09;8.63;;;7.00;;
16063;SDS011;8136;53.172;8.256;2024-02-16T14:25:48;9.43;;;7.17;;
16063;SDS011;8136;53.172;8.256;2024-02-16T14:28:20;10.63;;;7.10;;
16063;SDS011;8136;53.172;8.256;2024-02-16T14:31:06;9.30;;;7.30;;
16063;SDS011;8136;53.172;8.256;2024-02-16T14:33:40;9.57;;;6.80;;
16063;SDS011;8136;53.172;8.256;2024-02-16T14:36:18;10.33;;;7.17;;
16063;SDS011;8136;53.172;8.256;2024-02-16T14:39:04;7.93;;;7.03;;
16063;SDS011;8136;53.172;8.256;2024-02-16T14:41:45;9.30;;;6.50;;
16063;SDS011;8136;53.172;8.256;2024-02-16T14:44:17;8.53;;;6.40;;
16063;SDS011;8136;53.172;8.256;2024-02-16T14:46:45;8.03;;;6.23;;
16063;SDS011;8136;53.172;8.256;2024-02-16T14:49:12;6.40;;;5.53;;
16063;SDS011;8136;53.172;8.256;2024-02-16T14:51:45;8.20;;;5.30;;
16063;SDS011;8136;53.172;8.256;2024-02-16T14:54:23;7.30;;;5.60;;
16063;SDS011;8136;53.172;8.256;2024-02-16T14:56:51;6.23;;;4.97;;
16063;SDS011;8136;53.172;8.256;2024-02-16T14:59:24;6.13;;;4.77;;
16063;SDS011;8136;53.172;8.256;2024-02-16T15:01:56;6.50;;;4.93;;
16063;SDS011;8136;53.172;8.256;2024-02-16T15:04:50;4.50;;;4.07;;
16063;SDS011;8136;53.172;8.256;2024-02-16T15:11:11;4.57;;;3.67;;
16063;SDS011;8136;53.172;8.256;2024-02-16T15:17:06;4.47;;;4.07;;
16063;SDS011;8136;53.172;8.256;2024-02-16T15:19:38;4.80;;;4.10;;
16063;SDS011;8136;53.172;8.256;2024-02-16T15:22:21;4.00;;;3.60;;
16063;SDS011;8136;53.172;8.256;2024-02-16T15:24:51;3.43;;;3.00;;
16063;SDS011;8136;53.172;8.256;2024-02-16T15:27:22;4.03;;;3.30;;
16063;SDS011;8136;53.172;8.256;2024-02-16T15:29:51;4.73;;;3.10;;
16063;SDS011;8136;53.172;8.256;2024-02-16T15:32:19;3.30;;;3.00;;
16063;SDS011;8136;53.172;8.256;2024-02-16T15:34:46;4.17;;;2.50;;
16063;SDS011;8136;53.172;8.256;2024-02-16T15:37:19;3.03;;;2.73;;
16063;SDS011;8136;53.172;8.256;2024-02-16T15:39:47;3.00;;;2.60;;
16063;SDS011;8136;53.172;8.256;2024-02-16T15:42:25;3.67;;;2.50;;
16063;SDS011;8136;53.172;8.256;2024-02-16T15:44:56;2.23;;;2.03;;
16063;SDS011;8136;53.172;8.256;2024-02-16T15:47:25;3.53;;;2.20;;
16063;SDS011;8136;53.172;8.256;2024-02-16T15:49:52;2.40;;;1.90;;
16063;SDS011;8136;53.172;8.256;2024-02-16T15:52:19;2.17;;;1.83;;
16063;SDS011;8136;53.172;8.256;2024-02-16T15:54:47;2.47;;;1.97;;
16063;SDS011;8136;53.172;8.256;2024-02-16T15:57:14;3.17;;;2.00;;
16063;SDS011;8136;53.172;8.256;2024-02-16T15:59:41;1.90;;;1.77;;
16063;SDS011;8136;53.172;8.256;2024-02-16T16:02:08;8.10;;;6.40;;
16063;SDS011;8136;53.172;8.256;2024-02-16T16:04:36;9.10;;;8.13;;
16063;SDS011;8136;53.172;8.256;2024-02-16T16:07:17;8.83;;;7.27;;
16063;SDS011;8136;53.172;8.256;2024-02-16T16:09:44;5.83;;;4.83;;
16063;SDS011;8136;53.172;8.256;2024-02-16T16:12:11;5.10;;;3.43;;
16063;SDS011;8136;53.172;8.256;2024-02-16T16:14:41;4.33;;;2.87;;
16063;SDS011;8136;53.172;8.256;2024-02-16T16:17:09;2.83;;;2.33;;
16063;SDS011;8136;53.172;8.256;2024-02-16T16:19:37;2.70;;;2.00;;
16063;SDS011;8136;53.172;8.256;2024-02-16T16:22:04;3.53;;;2.17;;
16063;SDS011;8136;53.172;8.256;2024-02-16T16:24:31;2.50;;;1.93;;
16063;SDS011;8136;53.172;8.256;2024-02-16T16:26:58;2.23;;;2.03;;
16063;SDS011;8136;53.172;8.256;2024-02-16T16:29:25;2.10;;;1.90;;
16063;SDS011;8136;53.172;8.256;2024-02-16T16:31:52;2.00;;;1.90;;
16063;SDS011;8136;53.172;8.256;2024-02-16T16:34:19;2.20;;;1.93;;
16063;SDS011;8136;53.172;8.256;2024-02-16T16:36:48;2.20;;;1.70;;
16063;SDS011;8136;53.172;8.256;2024-02-16T16:39:18;3.63;;;2.00;;
16063;SDS011;8136;53.172;8.256;2024-02-16T16:41:45;2.17;;;1.77;;
16063;SDS011;8136;53.172;8.256;2024-02-16T16:44:12;1.80;;;1.33;;
16063;SDS011;8136;53.172;8.256;2024-02-16T16:46:39;2.83;;;1.97;;
16063;SDS011;8136;53.172;8.256;2024-02-16T16:49:06;1.80;;;1.60;;
16063;SDS011;8136;53.172;8.256;2024-02-16T16:51:33;1.80;;;1.60;;
16063;SDS011;8136;53.172;8.256;2024-02-16T16:54:02;2.20;;;1.60;;
16063;SDS011;8136;53.172;8.256;2024-02-16T16:56:29;1.80;;;1.70;;
16063;SDS011;8136;53.172;8.256;2024-02-16T16:58:56;2.60;;;1.60;;
16063;SDS011;8136;53.172;8.256;2024-02-16T17:01:26;1.70;;;1.60;;
16063;SDS011;8136;53.172;8.256;2024-02-16T17:03:53;2.53;;;1.77;;
16063;SDS011;8136;53.172;8.256;2024-02-16T17:06:20;2.57;;;1.73;;
16063;SDS011;8136;53.172;8.256;2024-02-16T17:08:48;2.40;;;1.70;;
16063;SDS011;8136;53.172;8.256;2024-02-16T17:11:16;2.57;;;2.00;;
16063;SDS011;8136;53.172;8.256;2024-02-16T17:13:44;2.13;;;1.90;;
16063;SDS011;8136;53.172;8.256;2024-02-16T17:16:11;2.57;;;1.90;;
16063;SDS011;8136;53.172;8.256;2024-02-16T17:18:38;3.13;;;2.17;;
16063;SDS011;8136;53.172;8.256;2024-02-16T17:21:05;2.27;;;2.07;;
16063;SDS011;8136;53.172;8.256;2024-02-16T17:23:33;2.53;;;2.17;;
16063;SDS011;8136;53.172;8.256;2024-02-16T17:26:00;2.40;;;2.00;;
16063;SDS011;8136;53.172;8.256;2024-02-16T17:28:28;2.80;;;2.60;;
16063;SDS011;8136;53.172;8.256;2024-02-16T17:30:57;3.33;;;2.33;;
16063;SDS011;8136;53.172;8.256;2024-02-16T17:33:24;2.57;;;2.23;;
16063;SDS011;8136;53.172;8.256;2024-02-16T17:35:51;3.73;;;2.87;;
16063;SDS011;8136;53.172;8.256;2024-02-16T17:38:18;2.80;;;2.50;;
16063;SDS011;8136;53.172;8.256;2024-02-16T17:40:45;3.33;;;2.53;;
16063;SDS011;8136;53.172;8.256;2024-02-16T17:43:12;3.10;;;2.77;;
16063;SDS011;8136;53.172;8.256;2024-02-16T17:45:41;3.10;;;2.57;;
16063;SDS011;8136;53.172;8.256;2024-02-16T17:48:08;3.70;;;2.90;;
16063;SDS011;8136;53.172;8.256;2024-02-16T17:50:36;2.90;;;2.60;;
16063;SDS011;8136;53.172;8.256;2024-02-16T17:53:03;2.90;;;2.60;;
16063;SDS011;8136;53.172;8.256;2024-02-16T17:55:30;3.20;;;2.90;;
16063;SDS011;8136;53.172;8.256;2024-02-16T17:57:59;3.20;;;2.90;;
16063;SDS011;8136;53.172;8.256;2024-02-16T18:21:09;3.70;;;2.70;;
16063;SDS011;8136;53.172;8.256;2024-02-16T18:23:36;3.77;;;2.53;;
16063;SDS011;8136;53.172;8.256;2024-02-16T18:26:06;3.23;;;2.80;;
16063;SDS011;8136;53.172;8.256;2024-02-16T18:28:34;3.80;;;3.40;;
16063;SDS011;8136;53.172;8.256;2024-02-16T18:31:00;6.43;;;3.60;;
16063;SDS011;8136;53.172;8.256;2024-02-16T18:33:27;3.20;;;2.90;;
16063;SDS011;8136;53.172;8.256;2024-02-16T18:35:54;3.50;;;3.07;;
16063;SDS011;8136;53.172;8.256;2024-02-16T18:38:23;3.30;;;3.00;;
16063;SDS011;8136;53.172;8.256;2024-02-16T18:40:50;3.90;;;3.60;;
16063;SDS011;8136;53.172;8.256;2024-02-16T18:43:17;3.73;;;3.33;;
16063;SDS011;8136;53.172;8.256;2024-02-16T18:45:44;5.93;;;4.03;;
16063;SDS011;8136;53.172;8.256;2024-02-16T18:48:12;4.93;;;4.03;;
16063;SDS011;8136;53.172;8.256;2024-02-16T18:50:39;4.27;;;3.87;;
16063;SDS011;8136;53.172;8.256;2024-02-16T20:15:47;4.43;;;3.87;;
16063;SDS011;8136;53.172;8.256;2024-02-16T20:18:37;5.13;;;3.70;;
16063;SDS011;8136;53.172;8.256;2024-02-16T20:24:23;4.40;;;3.70;;
16063;SDS011;8136;53.172;8.256;2024-02-16T20:27:03;4.60;;;3.63;;
16063;SDS011;8136;53.172;8.256;2024-02-16T20:29:45;4.70;;;4.03;;
16063;SDS011;8136;53.172;8.256;2024-02-16T20:32:46;6.97;;;3.50;;
16063;SDS011;8136;53.172;8.256;2024-02-16T20:38:47;5.70;;;4.53;;
16063;SDS011;8136;53.172;8.256;2024-02-16T20:41:41;7.27;;;4.63;;
16063;SDS011;8136;53.172;8.256;2024-02-16T20:44:18;6.97;;;4.83;;
16063;SDS011;8136;53.172;8.256;2024-02-16T20:47:06;8.33;;;5.10;;
16063;SDS011;8136;53.172;8.256;2024-02-16T20:50:01;6.33;;;5.30;;
16063;SDS011;8136;53.172;8.256;2024-02-16T20:53:26;7.53;;;5.10;;
16063;SDS011;8136;53.172;8.256;2024-02-16T20:56:47;9.03;;;5.40;;
16063;SDS011;8136;53.172;8.256;2024-02-16T20:59:15;8.23;;;5.70;;
16063;SDS011;8136;53.172;8.256;2024-02-16T21:01:55;6.87;;;5.67;;
16063;SDS011;8136;53.172;8.256;2024-02-16T21:08:24;9.13;;;6.37;;
16063;SDS011;8136;53.172;8.256;2024-02-16T21:11:40;11.93;;;6.53;;
16063;SDS011;8136;53.172;8.256;2024-02-16T21:14:14;9.30;;;6.30;;
16063;SDS011;8136;53.172;8.256;2024-02-16T21:17:02;10.17;;;5.83;;
16063;SDS011;8136;53.172;8.256;2024-02-16T21:19:58;10.30;;;5.90;;
16063;SDS011;8136;53.172;8.256;2024-02-16T21:23:01;7.40;;;5.90;;
16063;SDS011;8136;53.172;8.256;2024-02-16T21:25:50;9.57;;;5.47;;
16063;SDS011;8136;53.172;8.256;2024-02-16T21:29:06;13.73;;;5.93;;
16063;SDS011;8136;53.172;8.256;2024-02-16T21:32:14;10.63;;;5.40;;
16063;SDS011;8136;53.172;8.256;2024-02-16T21:34:55;10.07;;;6.43;;
16063;SDS011;8136;53.172;8.256;2024-02-16T21:51:03;14.23;;;6.70;;
16063;SDS011;8136;53.172;8.256;2024-02-16T21:54:02;12.40;;;7.03;;
16063;SDS011;8136;53.172;8.256;2024-02-16T22:00:12;13.13;;;7.30;;
16063;SDS011;8136;53.172;8.256;2024-02-16T22:03:22;11.60;;;6.93;;
16063;SDS011;8136;53.172;8.256;2024-02-16T22:06:17;10.20;;;7.00;;
16063;SDS011;8136;53.172;8.256;2024-02-16T22:12:31;13.77;;;6.67;;
16063;SDS011;8136;53.172;8.256;2024-02-16T22:16:20;10.93;;;6.50;;
16063;SDS011;8136;53.172;8.256;2024-02-16T22:18:22;11.73;;;6.23;;
16063;SDS011;8136;53.172;8.256;2024-02-16T22:20:52;7.47;;;5.03;;
16063;SDS011;8136;53.172;8.256;2024-02-16T22:26:42;9.70;;;5.97;;
16063;SDS011;8136;53.172;8.256;2024-02-16T22:29:22;8.23;;;5.70;;
16063;SDS011;8136;53.172;8.256;2024-02-16T22:35:01;9.40;;;5.93;;
16063;SDS011;8136;53.172;8.256;2024-02-16T22:37:56;8.80;;;5.90;;
16063;SDS011;8136;53.172;8.256;2024-02-16T22:46:16;8.33;;;5.43;;
16063;SDS011;8136;53.172;8.256;2024-02-16T22:48:42;10.60;;;5.70;;
16063;SDS011;8136;53.172;8.256;2024-02-16T22:51:09;10.67;;;6.00;;
16063;SDS011;8136;53.172;8.256;2024-02-16T22:53:36;9.00;;;5.43;;
16063;SDS011;8136;53.172;8.256;2024-02-16T22:56:03;11.60;;;6.03;;
16063;SDS011;8136;53.172;8.256;2024-02-16T23:05:21;9.30;;;6.17;;
